createdAt,value
2018-02-05T00:01:03.066Z,14.30
2018-02-05T00:03:31.311Z,17.00
2018-02-05T00:05:59.535Z,16.77
2018-02-05T00:08:27.020Z,16.33
2018-02-05T00:10:54.488Z,15.90
2018-02-05T00:13:22.723Z,15.90
2018-02-05T00:15:50.189Z,15.70
2018-02-05T00:18:18.775Z,16.73
2018-02-05T00:20:46.259Z,15.73
2018-02-05T00:23:14.517Z,15.90
2018-02-05T00:25:41.973Z,16.27
2018-02-05T00:28:09.470Z,17.07
2018-02-05T00:30:37.708Z,16.58
2018-02-05T00:33:05.271Z,15.60
2018-02-05T00:35:32.735Z,15.70
2018-02-05T00:38:00.194Z,16.43
2018-02-05T00:40:27.672Z,16.67
2018-02-05T00:42:55.905Z,15.63
2018-02-05T00:45:23.371Z,15.73
2018-02-05T00:47:50.827Z,16.40
2018-02-05T00:50:18.311Z,15.47
2018-02-05T00:52:46.538Z,15.80
2018-02-05T00:55:14.003Z,15.67
2018-02-05T00:57:41.475Z,14.97
2018-02-05T01:00:08.945Z,15.77
2018-02-05T01:02:36.418Z,17.07
2018-02-05T01:05:04.706Z,14.83
2018-02-05T01:07:32.187Z,17.10
2018-02-05T01:09:59.665Z,17.90
2018-02-05T01:12:27.119Z,15.83
2018-02-05T01:14:55.053Z,17.30
2018-02-05T01:17:22.521Z,17.10
2018-02-05T01:19:50.007Z,15.17
2018-02-05T01:22:17.484Z,16.80
2018-02-05T01:24:44.969Z,17.40
2018-02-05T01:27:13.235Z,16.90
2018-02-05T01:29:41.474Z,16.90
2018-02-05T01:32:08.996Z,16.50
2018-02-05T01:34:36.550Z,15.87
2018-02-05T01:37:03.972Z,16.83
2018-02-05T01:39:32.240Z,16.03
2018-02-05T01:41:59.700Z,16.43
2018-02-05T01:44:27.941Z,15.30
2018-02-05T01:46:55.419Z,16.20
2018-02-05T01:49:22.892Z,16.53
2018-02-05T01:51:50.454Z,16.50
2018-02-05T01:54:17.919Z,17.87
2018-02-05T01:56:45.394Z,16.43
2018-02-05T01:59:13.638Z,17.17
2018-02-05T02:01:41.116Z,16.30
2018-02-05T02:04:09.331Z,17.00
2018-02-05T02:06:36.816Z,17.27
2018-02-05T02:09:04.339Z,16.63
2018-02-05T02:11:32.588Z,16.33
2018-02-05T02:14:00.822Z,18.67
2018-02-05T02:16:28.289Z,18.43
2018-02-05T02:18:55.751Z,17.07
2018-02-05T02:21:24.720Z,17.60
2018-02-05T02:23:52.189Z,17.57
2018-02-05T02:26:19.656Z,16.97
2018-02-05T02:28:47.879Z,16.47
2018-02-05T02:31:15.350Z,17.05
2018-02-05T02:33:42.804Z,16.00
2018-02-05T02:36:10.282Z,16.83
2018-02-05T02:38:37.754Z,17.93
2018-02-05T02:41:05.227Z,18.90
2018-02-05T02:43:32.678Z,19.47
2018-02-05T02:46:00.159Z,15.87
2018-02-05T02:48:28.395Z,15.83
2018-02-05T02:50:56.979Z,16.90
2018-02-05T02:53:24.436Z,16.73
2018-02-05T02:55:51.912Z,16.80
2018-02-05T02:58:19.396Z,18.83
2018-02-05T03:00:47.610Z,18.10
2018-02-05T03:03:15.075Z,18.07
2018-02-05T03:05:42.542Z,16.77
2018-02-05T03:08:10.010Z,17.03
2018-02-05T03:10:37.476Z,16.93
2018-02-05T03:13:05.103Z,17.83
2018-02-05T03:15:32.559Z,16.45
2018-02-05T03:18:00.034Z,16.10
2018-02-05T03:20:27.499Z,18.13
2018-02-05T03:22:54.979Z,16.70
2018-02-05T03:25:22.449Z,16.27
2018-02-05T03:27:50.676Z,18.48
2018-02-05T03:30:18.141Z,17.30
2018-02-05T03:32:45.626Z,17.20
2018-02-05T03:35:13.898Z,17.27
2018-02-05T03:37:41.370Z,18.20
2018-02-05T03:40:09.602Z,16.60
2018-02-05T03:42:37.076Z,16.93
2018-02-05T03:45:04.538Z,18.83
2018-02-05T03:47:32.018Z,17.67
2018-02-05T03:50:00.239Z,17.57
2018-02-05T03:52:27.727Z,17.67
2018-02-05T03:54:55.199Z,18.00
2018-02-05T03:57:22.667Z,17.17
2018-02-05T03:59:50.882Z,16.87
2018-02-05T04:02:18.349Z,19.00
2018-02-05T04:04:45.798Z,16.90
2018-02-05T04:07:19.090Z,16.13
2018-02-05T04:09:46.555Z,15.93
2018-02-05T04:12:14.034Z,17.20
2018-02-05T04:14:41.495Z,16.43
2018-02-05T04:17:08.976Z,16.70
2018-02-05T04:19:37.225Z,16.33
2018-02-05T04:22:04.691Z,16.48
2018-02-05T04:24:32.155Z,16.33
2018-02-05T04:26:59.629Z,16.83
2018-02-05T04:29:28.675Z,17.23
2018-02-05T04:31:56.138Z,17.13
2018-02-05T04:34:23.614Z,16.20
2018-02-05T04:36:51.075Z,15.47
2018-02-05T04:39:18.546Z,15.27
2018-02-05T04:41:46.025Z,16.60
2018-02-05T04:44:14.266Z,15.82
2018-02-05T04:46:41.732Z,14.47
2018-02-05T04:49:09.978Z,16.20
2018-02-05T04:51:37.431Z,15.67
2018-02-05T04:54:04.919Z,14.47
2018-02-05T04:56:33.146Z,16.17
2018-02-05T04:59:00.608Z,14.97
2018-02-05T05:01:28.083Z,24.03
2018-02-05T05:03:55.554Z,17.53
2018-02-05T05:06:23.010Z,14.70
2018-02-05T05:08:51.253Z,15.37
2018-02-05T05:11:18.718Z,15.17
2018-02-05T05:13:46.184Z,16.43
2018-02-05T05:16:13.672Z,16.20
2018-02-05T05:18:48.595Z,15.67
2018-02-05T05:21:16.062Z,16.17
2018-02-05T05:23:43.544Z,16.00
2018-02-05T05:26:11.762Z,14.70
2018-02-05T05:28:39.247Z,15.93
2018-02-05T05:31:08.216Z,16.40
2018-02-05T05:33:35.692Z,16.83
2018-02-05T05:36:03.159Z,17.13
2018-02-05T05:38:30.663Z,16.15
2018-02-05T05:40:58.124Z,17.43
2018-02-05T05:43:25.579Z,16.80
2018-02-05T05:45:53.135Z,16.20
2018-02-05T05:48:20.611Z,16.10
2018-02-05T05:50:48.085Z,18.17
2018-02-05T05:53:15.557Z,16.87
2018-02-05T05:55:43.045Z,19.43
2018-02-05T05:58:11.258Z,19.37
2018-02-05T06:00:38.731Z,16.97
2018-02-05T06:03:06.195Z,18.03
2018-02-05T06:05:33.744Z,18.37
2018-02-05T06:08:01.219Z,17.97
2018-02-05T06:10:28.779Z,17.97
2018-02-05T06:12:56.238Z,18.60
2018-02-05T06:15:23.714Z,19.10
2018-02-05T06:17:51.968Z,19.67
2018-02-05T06:20:19.452Z,19.53
2018-02-05T06:22:47.711Z,19.35
2018-02-05T06:25:15.951Z,19.93
2018-02-05T06:27:43.416Z,17.93
2018-02-05T06:30:10.899Z,17.83
2018-02-05T06:32:38.363Z,18.97
2018-02-05T06:35:05.856Z,17.47
2018-02-05T06:37:33.330Z,17.93
2018-02-05T06:40:00.828Z,18.93
2018-02-05T06:42:28.294Z,18.70
2018-02-05T06:44:56.563Z,19.83
2018-02-05T06:47:24.046Z,17.43
2018-02-05T06:49:52.292Z,18.60
2018-02-05T06:52:31.707Z,18.87
2018-02-05T06:55:21.586Z,17.58
2018-02-05T06:57:49.041Z,19.23
2018-02-05T07:00:16.564Z,19.33
2018-02-05T07:02:44.803Z,16.77
2018-02-05T07:05:13.485Z,20.13
2018-02-05T07:07:40.990Z,18.30
2018-02-05T07:10:09.216Z,18.93
2018-02-05T07:12:36.701Z,18.80
2018-02-05T07:15:04.936Z,18.60
2018-02-05T07:17:32.410Z,19.47
2018-02-05T07:20:00.665Z,18.80
2018-02-05T07:22:28.143Z,19.63
2018-02-05T07:24:55.599Z,18.90
2018-02-05T07:27:23.145Z,18.42
2018-02-05T07:29:50.601Z,18.00
2018-02-05T07:32:18.070Z,20.33
2018-02-05T07:34:45.562Z,17.83
2018-02-05T07:37:13.801Z,19.60
2018-02-05T07:39:41.276Z,18.13
2018-02-05T07:42:08.735Z,18.13
2018-02-05T07:44:36.203Z,16.50
2018-02-05T07:47:04.470Z,17.20
2018-02-05T07:49:31.932Z,16.50
2018-02-05T07:52:00.178Z,18.30
2018-02-05T07:54:27.640Z,16.40
2018-02-05T07:56:55.099Z,16.33
2018-02-05T07:59:23.333Z,18.73
2018-02-05T08:01:50.812Z,17.73
2018-02-05T08:04:18.263Z,16.13
2018-02-05T08:06:45.767Z,16.43
2018-02-05T08:09:13.199Z,17.57
2018-02-05T08:11:40.796Z,17.30
2018-02-05T08:14:09.031Z,17.63
2018-02-05T08:16:36.532Z,17.40
2018-02-05T08:19:04.746Z,18.63
2018-02-05T08:21:32.234Z,18.92
2018-02-05T08:23:59.708Z,18.43
2018-02-05T08:26:27.190Z,17.50
2018-02-05T08:28:55.424Z,18.03
2018-02-05T08:31:22.893Z,19.50
2018-02-05T08:33:50.382Z,20.00
2018-02-05T08:36:17.848Z,18.77
2018-02-05T08:38:45.400Z,18.23
2018-02-05T08:41:13.613Z,18.57
2018-02-05T08:43:41.106Z,18.80
2018-02-05T08:46:09.337Z,16.63
2018-02-05T08:48:37.347Z,17.20
2018-02-05T08:51:04.812Z,17.90
2018-02-05T08:53:38.499Z,16.73
2018-02-05T08:56:05.955Z,16.37
2018-02-05T08:58:34.403Z,15.40
2018-02-05T09:01:01.863Z,16.73
2018-02-05T09:03:29.330Z,17.40
2018-02-05T09:05:56.794Z,16.47
2018-02-05T09:08:24.289Z,17.17
2018-02-05T09:10:51.736Z,17.00
2018-02-05T09:13:19.211Z,16.20
2018-02-05T09:15:48.370Z,16.23
2018-02-05T09:18:15.842Z,16.47
2018-02-05T09:20:43.327Z,15.00
2018-02-05T09:23:11.545Z,15.80
2018-02-05T09:25:39.001Z,15.73
2018-02-05T09:28:06.587Z,15.90
2018-02-05T09:30:34.048Z,16.60
2018-02-05T09:33:02.293Z,16.07
2018-02-05T09:35:29.771Z,15.83
2018-02-05T09:37:58.469Z,16.57
2018-02-05T09:40:25.920Z,16.13
2018-02-05T09:42:54.155Z,16.67
2018-02-05T09:45:21.900Z,16.90
2018-02-05T09:47:49.530Z,17.60
2018-02-05T09:50:16.995Z,17.00
2018-02-05T09:52:45.218Z,16.17
2018-02-05T09:55:12.687Z,15.33
2018-02-05T09:57:40.167Z,17.13
2018-02-05T10:00:08.452Z,18.37
2018-02-05T10:02:35.911Z,16.50
2018-02-05T10:05:03.379Z,15.00
2018-02-05T10:07:31.624Z,16.07
2018-02-05T10:09:59.108Z,15.03
2018-02-05T10:12:26.575Z,15.02
2018-02-05T10:14:54.810Z,14.03
2018-02-05T10:17:22.286Z,14.10
2018-02-05T10:19:49.756Z,13.53
2018-02-05T10:22:19.427Z,15.10
2018-02-05T10:24:46.891Z,14.10
2018-02-05T10:27:14.363Z,14.20
2018-02-05T10:29:41.837Z,15.03
2018-02-05T10:32:10.101Z,13.37
2018-02-05T10:34:37.568Z,14.25
2018-02-05T10:37:06.340Z,14.40
2018-02-05T10:39:33.822Z,13.00
2018-02-05T10:42:02.051Z,16.17
2018-02-05T10:44:31.162Z,15.00
2018-02-05T10:46:58.623Z,13.77
2018-02-05T10:49:26.090Z,12.53
2018-02-05T10:51:53.559Z,12.70
2018-02-05T10:54:21.799Z,12.37
2018-02-05T10:56:49.271Z,12.40
2018-02-05T10:59:16.735Z,12.00
2018-02-05T11:01:45.711Z,12.23
2018-02-05T11:04:13.180Z,11.20
2018-02-05T11:06:40.741Z,11.30
2018-02-05T11:09:08.207Z,11.63
2018-02-05T11:11:35.674Z,11.03
2018-02-05T11:14:03.127Z,10.90
2018-02-05T11:16:31.370Z,9.13
2018-02-05T11:18:58.836Z,11.55
2018-02-05T11:21:26.308Z,11.40
2018-02-05T11:23:53.770Z,11.57
2018-02-05T11:26:21.227Z,11.60
2018-02-05T11:28:48.710Z,10.00
2018-02-05T11:31:16.931Z,10.33
2018-02-05T11:34:03.665Z,10.47
2018-02-05T11:36:31.133Z,10.13
2018-02-05T11:38:59.390Z,10.38
2018-02-05T11:41:26.862Z,8.40
2018-02-05T11:43:54.327Z,11.00
2018-02-05T11:46:21.804Z,11.07
2018-02-05T11:48:49.266Z,10.37
2018-02-05T11:51:17.647Z,9.27
2018-02-05T11:53:45.115Z,9.90
2018-02-05T11:56:12.577Z,10.90
2018-02-05T11:58:40.048Z,10.00
2018-02-05T12:01:07.527Z,9.52
2018-02-05T12:03:35.009Z,10.50
2018-02-05T12:06:02.466Z,11.37
2018-02-05T12:08:30.710Z,10.23
2018-02-05T12:10:58.190Z,10.03
2018-02-05T12:13:25.645Z,10.60
2018-02-05T12:15:53.116Z,10.65
2018-02-05T12:18:21.356Z,10.73
2018-02-05T12:20:48.839Z,10.50
2018-02-05T12:23:17.101Z,10.23
2018-02-05T12:38:51.996Z,11.53
2018-02-05T12:41:19.464Z,10.27
2018-02-05T12:43:46.951Z,10.67
2018-02-05T12:46:14.416Z,8.90
2018-02-05T12:48:42.663Z,9.30
2018-02-05T12:51:10.128Z,9.93
2018-02-05T12:53:37.600Z,9.93
2018-02-05T12:56:05.833Z,7.93
2018-02-05T12:58:36.715Z,8.07
2018-02-05T13:01:21.994Z,9.53
2018-02-05T13:03:51.048Z,9.33
2018-02-05T13:06:22.305Z,10.73
2018-02-05T13:08:49.791Z,10.10
2018-02-05T13:11:17.268Z,8.60
2018-02-05T13:13:45.512Z,9.48
2018-02-05T13:16:12.971Z,8.80
2018-02-05T13:18:40.430Z,9.30
2018-02-05T13:21:09.406Z,8.47
2018-02-05T13:23:36.877Z,10.03
2018-02-05T13:26:04.435Z,10.67
2018-02-05T13:28:32.696Z,9.00
2018-02-05T13:31:00.155Z,9.80
2018-02-05T13:33:27.614Z,12.20
2018-02-05T13:35:55.089Z,8.90
2018-02-05T13:38:22.569Z,9.00
2018-02-05T13:40:50.815Z,9.90
2018-02-05T13:43:18.277Z,9.67
2018-02-05T13:45:45.746Z,9.17
2018-02-05T13:48:13.206Z,8.83
2018-02-05T13:50:41.435Z,9.23
2018-02-05T13:53:08.924Z,8.37
2018-02-05T13:55:36.399Z,10.23
2018-02-05T13:58:04.634Z,10.73
2018-02-05T14:00:32.099Z,9.47
2018-02-05T14:02:59.582Z,11.20
2018-02-05T14:05:27.131Z,10.40
2018-02-05T14:07:54.607Z,10.03
2018-02-05T14:10:22.845Z,9.63
2018-02-05T14:12:51.098Z,11.10
2018-02-05T14:15:18.564Z,10.90
2018-02-05T14:17:46.048Z,11.77
2018-02-05T14:20:13.511Z,10.87
2018-02-05T14:22:41.005Z,11.10
2018-02-05T14:25:09.240Z,11.40
2018-02-05T14:27:36.706Z,11.13
2018-02-05T14:30:04.190Z,9.48
2018-02-05T14:32:32.411Z,10.80
2018-02-05T14:34:59.915Z,10.00
2018-02-05T14:37:28.131Z,9.23
2018-02-05T14:39:55.625Z,9.80
2018-02-05T14:42:23.078Z,9.23
2018-02-05T14:44:50.545Z,9.23
2018-02-05T14:47:18.787Z,9.27
2018-02-05T14:49:46.252Z,9.17
2018-02-05T14:52:13.729Z,10.37
2018-02-05T14:54:41.212Z,9.90
2018-02-05T14:57:09.435Z,10.20
2018-02-05T14:59:36.916Z,11.63
2018-02-05T15:02:05.904Z,11.47
2018-02-05T15:04:33.374Z,10.23
2018-02-05T15:07:00.839Z,8.93
2018-02-05T15:09:28.307Z,10.43
2018-02-05T15:11:56.542Z,9.70
2018-02-05T15:14:24.020Z,9.50
2018-02-05T15:16:51.486Z,9.77
2018-02-05T15:19:19.736Z,9.87
2018-02-05T15:21:47.186Z,10.10
2018-02-05T15:24:14.655Z,10.20
2018-02-05T15:26:42.214Z,9.60
2018-02-05T15:29:09.670Z,9.53
2018-02-05T15:31:37.844Z,10.10
2018-02-05T15:34:05.313Z,10.00
2018-02-05T15:36:32.795Z,9.60
2018-02-05T15:39:01.011Z,10.23
2018-02-05T15:41:29.039Z,10.13
2018-02-05T15:43:57.254Z,9.20
2018-02-05T15:46:24.734Z,9.10
2018-02-05T15:48:52.191Z,10.30
2018-02-05T15:51:19.657Z,10.30
2018-02-05T15:53:47.124Z,9.88
2018-02-05T15:56:14.595Z,10.13
2018-02-05T15:58:42.850Z,10.40
2018-02-05T16:01:10.313Z,9.90
2018-02-05T16:03:38.539Z,9.37
2018-02-05T16:06:06.031Z,9.57
2018-02-05T16:08:33.567Z,11.10
2018-02-05T16:11:01.756Z,10.40
2018-02-05T16:13:29.235Z,10.97
2018-02-05T16:15:56.741Z,11.57
2018-02-05T16:18:24.200Z,10.37
2018-02-05T16:20:58.946Z,10.97
2018-02-05T16:23:26.399Z,11.40
2018-02-05T16:25:53.898Z,12.40
2018-02-05T16:28:21.377Z,10.60
2018-02-05T16:30:49.623Z,11.77
2018-02-05T16:33:17.100Z,11.00
2018-02-05T16:35:45.399Z,10.47
2018-02-05T16:38:12.855Z,10.37
2018-02-05T16:40:41.108Z,10.83
2018-02-05T16:43:09.340Z,10.70
2018-02-05T16:45:36.848Z,12.33
2018-02-05T16:48:05.087Z,11.60
2018-02-05T16:50:32.538Z,11.23
2018-02-05T16:53:00.016Z,11.88
2018-02-05T16:55:28.259Z,10.07
2018-02-05T16:57:55.727Z,11.00
2018-02-05T17:00:23.203Z,10.80
2018-02-05T17:02:50.696Z,11.90
2018-02-05T17:05:18.933Z,12.10
2018-02-05T17:07:46.420Z,11.87
2018-02-05T17:10:14.652Z,10.93
2018-02-05T17:12:42.118Z,10.77
2018-02-05T17:15:09.617Z,11.15
2018-02-05T17:17:37.872Z,11.40
2018-02-05T17:20:05.343Z,12.20
2018-02-05T17:22:33.583Z,12.37
2018-02-05T17:25:02.280Z,11.50
2018-02-05T17:27:29.761Z,11.30
2018-02-05T17:29:57.995Z,11.70
2018-02-05T17:32:25.481Z,13.30
2018-02-05T17:35:00.482Z,13.80
2018-02-05T17:37:27.978Z,13.10
2018-02-05T17:39:55.454Z,11.77
2018-02-05T17:42:23.694Z,11.40
2018-02-05T17:44:51.148Z,12.50
2018-02-05T17:47:18.723Z,12.60
2018-02-05T17:49:46.201Z,13.60
2018-02-05T17:52:14.435Z,13.67
2018-02-05T17:54:41.911Z,13.13
2018-02-05T17:57:09.407Z,13.83
2018-02-05T17:59:37.643Z,13.47
2018-02-05T18:02:05.135Z,14.10
2018-02-05T18:04:33.364Z,13.77
2018-02-05T18:07:00.854Z,13.43
2018-02-05T18:09:29.086Z,12.68
2018-02-05T18:11:56.558Z,15.37
2018-02-05T18:14:24.040Z,14.63
2018-02-05T18:16:51.499Z,22.00
2018-02-05T18:19:18.991Z,18.47
2018-02-05T18:21:46.465Z,16.73
2018-02-05T18:24:13.947Z,15.70
2018-02-05T18:26:41.413Z,15.40
2018-02-05T18:29:08.883Z,14.70
2018-02-05T18:31:36.351Z,14.35
2018-02-05T18:34:04.592Z,14.60
2018-02-05T18:36:32.055Z,14.20
2018-02-05T18:38:59.532Z,14.70
2018-02-05T18:41:26.995Z,13.60
2018-02-05T18:43:55.231Z,15.07
2018-02-05T18:46:22.698Z,15.83
2018-02-05T18:48:50.190Z,17.90
2018-02-05T18:51:18.422Z,18.20
2018-02-05T18:53:45.899Z,18.05
2018-02-05T18:56:13.368Z,18.83
2018-02-05T18:58:41.594Z,23.77
2018-02-05T19:01:09.052Z,17.17
2018-02-05T19:03:36.513Z,17.00
2018-02-05T19:06:03.983Z,14.85
2018-02-05T19:11:25.059Z,14.40
2018-02-05T19:13:53.308Z,14.10
2018-02-05T19:16:20.769Z,14.53
2018-02-05T19:18:48.250Z,14.23
2018-02-05T19:21:16.505Z,14.77
2018-02-05T19:23:43.986Z,15.50
2018-02-05T19:26:12.228Z,16.62
2018-02-05T19:28:39.704Z,14.30
2018-02-05T19:33:41.780Z,13.10
2018-02-05T19:36:09.283Z,10.75
2018-02-05T19:38:36.781Z,12.53
2018-02-05T19:41:04.268Z,11.93
2018-02-05T19:43:32.503Z,12.93
2018-02-05T19:46:00.032Z,12.33
2018-02-05T19:48:33.310Z,16.45
2018-02-05T19:51:01.556Z,16.20
2018-02-05T19:53:29.016Z,15.33
2018-02-05T19:55:56.493Z,14.53
2018-02-05T19:58:24.720Z,12.70
2018-02-05T20:00:52.212Z,14.57
2018-02-05T20:03:19.693Z,13.67
2018-02-05T20:05:47.920Z,14.90
2018-02-05T20:08:16.508Z,17.10
2018-02-05T20:10:44.031Z,12.67
2018-02-05T20:13:12.278Z,13.90
2018-02-05T20:15:40.562Z,12.53
2018-02-05T20:18:08.079Z,12.47
2018-02-05T20:20:35.580Z,13.70
2018-02-05T20:23:03.820Z,14.33
2018-02-05T20:25:31.292Z,12.57
2018-02-05T20:27:59.510Z,12.97
2018-02-05T20:30:26.991Z,12.67
2018-02-05T20:32:54.447Z,15.70
2018-02-05T20:35:21.937Z,16.00
2018-02-05T20:37:49.434Z,15.60
2018-02-05T20:40:16.931Z,14.93
2018-02-05T20:42:44.396Z,15.13
2018-02-05T20:45:11.872Z,17.00
2018-02-05T20:47:40.152Z,14.10
2018-02-05T20:50:08.396Z,13.53
2018-02-05T20:52:35.865Z,14.03
2018-02-05T20:55:03.339Z,13.40
2018-02-05T20:57:31.555Z,13.40
2018-02-05T20:59:59.046Z,15.17
2018-02-05T21:02:26.546Z,11.90
2018-02-05T21:04:53.999Z,14.33
2018-02-05T21:07:22.244Z,17.30
2018-02-05T21:09:49.718Z,14.63
2018-02-05T21:12:17.178Z,14.00
2018-02-05T21:14:45.411Z,13.43
2018-02-05T21:17:12.927Z,13.20
2018-02-05T21:19:41.147Z,14.03
2018-02-05T21:22:08.619Z,12.27
2018-02-05T21:24:36.125Z,15.43
2018-02-05T21:27:04.355Z,14.98
2018-02-05T21:29:31.799Z,14.00
2018-02-05T21:31:59.312Z,12.83
2018-02-05T21:34:27.544Z,12.70
2018-02-05T21:36:55.071Z,13.00
2018-02-05T21:39:22.541Z,13.90
2018-02-05T21:41:50.069Z,13.40
2018-02-05T21:44:17.569Z,14.00
2018-02-05T21:46:45.027Z,14.20
2018-02-05T21:49:12.479Z,13.93
2018-02-05T21:51:39.954Z,13.70
2018-02-05T21:54:07.409Z,15.00
2018-02-05T21:56:34.926Z,13.53
2018-02-05T21:59:02.392Z,14.90
2018-02-05T22:01:29.883Z,14.00
2018-02-05T22:03:57.330Z,13.90
2018-02-05T22:06:24.809Z,15.53
2018-02-05T22:08:53.072Z,14.57
2018-02-05T22:11:20.553Z,14.03
2018-02-05T22:13:48.081Z,13.00
2018-02-05T22:16:15.502Z,13.40
2018-02-05T22:18:42.982Z,15.17
2018-02-05T22:21:10.485Z,14.30
2018-02-05T22:23:37.950Z,14.53
2018-02-05T22:26:06.181Z,14.07
2018-02-05T22:41:22.579Z,14.80
2018-02-05T22:43:50.059Z,15.20
2018-02-05T22:46:18.284Z,14.17
2018-02-05T22:48:45.758Z,13.53
2018-02-05T22:51:13.236Z,14.60
2018-02-05T22:53:40.707Z,13.60
2018-02-05T22:56:08.930Z,14.60
2018-02-05T22:58:36.403Z,13.57
2018-02-05T23:01:03.879Z,13.37
2018-02-05T23:03:31.356Z,14.97
2018-02-05T23:05:59.613Z,15.07
2018-02-05T23:08:27.076Z,14.20
2018-02-05T23:10:54.668Z,12.80
2018-02-05T23:13:22.141Z,16.73
2018-02-05T23:15:49.603Z,13.57
2018-02-05T23:18:17.077Z,14.30
2018-02-05T23:20:44.540Z,14.40
2018-02-05T23:23:12.016Z,14.13
2018-02-05T23:25:39.467Z,13.53
2018-02-05T23:28:06.941Z,13.47
2018-02-05T23:30:34.404Z,15.67
2018-02-05T23:33:02.647Z,14.30
2018-02-05T23:35:30.124Z,14.00
2018-02-05T23:37:57.600Z,13.43
2018-02-05T23:40:25.059Z,13.93
2018-02-05T23:42:53.292Z,12.70
2018-02-05T23:45:20.858Z,14.53
2018-02-05T23:47:48.343Z,13.40
2018-02-05T23:50:16.588Z,14.53
2018-02-05T23:52:44.072Z,13.77
2018-02-05T23:55:11.534Z,15.87
2018-02-05T23:57:38.999Z,15.30
